Terminal Aerodrome Forecast
Issued by NWS

Home | Current Version | Previous Version | Text Only | Print | Product List | Glossary On
Versions: 1 2 3 4 5 6 7 8 9 10 11 12 13 14 15 16
000
FTUS41 KBGM 301700
TAFRME
TAF
KRME 301730Z 3018/0118 12008KT P6SM FEW050 BKN250
     FM302000 12005KT P6SM BKN040
     FM010500 VRB03KT 5SM BR OVC040
     FM010600 11003KT 4SM BR OVC015
     FM011400 12006KT P6SM OVC030=

USA.gov is the U.S. government's official web portal to all federal, state and local government web resources and services.